Time;durP1;ratioP1;P1;durP2;ratioP2;P2;SDS_P1;SDS_P2;PMS_P1;PMS_P2;Temp;Humidity;BMP_temperature;BMP_pressure;BME280_temperature;BME280_humidity;BME280_pressure;Samples;Min_cycle;Max_cycle;Signal;HPM_P1;HPM_P2
2021/05/03 00:02:13;;;;;;;1.05;0.60;;;3.80;99.90;;;;;;4960196;28;20118;-65
2021/05/03 00:04:40;;;;;;;1.50;0.77;;;3.80;99.90;;;;;;4959060;28;20058;-66
2021/05/03 00:07:06;;;;;;;1.45;1.02;;;3.80;99.90;;;;;;4962821;28;20055;-64
2021/05/03 00:09:33;;;;;;;1.50;0.88;;;3.70;99.90;;;;;;4962811;28;20134;-66
2021/05/03 00:12:00;;;;;;;1.30;0.82;;;3.70;99.90;;;;;;4965137;28;20050;-63
2021/05/03 00:14:26;;;;;;;0.98;0.70;;;3.60;99.90;;;;;;4963574;28;20050;-62
2021/05/03 00:16:53;;;;;;;1.15;0.77;;;3.70;99.90;;;;;;4963709;28;20047;-65
2021/05/03 00:19:19;;;;;;;1.95;0.90;;;3.70;99.90;;;;;;4960407;28;20524;-66
2021/05/03 00:21:46;;;;;;;1.23;0.90;;;3.70;99.90;;;;;;4962823;28;20146;-63
2021/05/03 00:24:12;;;;;;;1.15;1.05;;;3.70;99.90;;;;;;4963891;28;20059;-63
2021/05/03 00:26:39;;;;;;;2.15;0.57;;;3.70;99.90;;;;;;4963427;28;20074;-63
2021/05/03 00:29:05;;;;;;;1.15;0.88;;;3.70;99.90;;;;;;4956567;28;20410;-64
2021/05/03 00:31:31;;;;;;;2.53;1.10;;;3.70;99.90;;;;;;4961173;28;20814;-63
2021/05/03 00:33:58;;;;;;;2.63;0.68;;;3.80;99.90;;;;;;4962564;28;20058;-64
2021/05/03 00:36:24;;;;;;;3.05;0.80;;;3.80;99.90;;;;;;4965402;28;20058;-64
2021/05/03 00:38:51;;;;;;;5.07;1.27;;;3.80;99.90;;;;;;4944551;28;20043;-62
2021/05/03 00:41:17;;;;;;;1.23;1.05;;;3.80;99.90;;;;;;4963146;28;20059;-63
2021/05/03 00:43:44;;;;;;;0.73;0.70;;;3.90;99.90;;;;;;4961299;28;20047;-63
2021/05/03 00:46:10;;;;;;;1.70;0.80;;;3.80;99.90;;;;;;4962910;28;20924;-62
2021/05/03 00:48:37;;;;;;;2.00;0.80;;;3.80;99.90;;;;;;4962383;28;20105;-63
2021/05/03 00:51:03;;;;;;;2.30;0.88;;;3.80;99.90;;;;;;4963328;28;20047;-64
2021/05/03 00:53:30;;;;;;;2.08;1.23;;;3.80;99.90;;;;;;4961200;28;20047;-63
2021/05/03 00:55:56;;;;;;;1.40;1.30;;;3.80;99.90;;;;;;4963222;28;20109;-63
2021/05/03 00:58:23;;;;;;;2.22;1.10;;;3.80;99.90;;;;;;4962711;28;20117;-62
2021/05/03 01:00:49;;;;;;;3.53;1.50;;;3.80;99.90;;;;;;4962727;28;20073;-63
2021/05/03 01:03:16;;;;;;;1.98;0.73;;;3.80;99.90;;;;;;4962375;28;20070;-63
2021/05/03 01:05:42;;;;;;;1.50;0.82;;;3.80;99.90;;;;;;4960034;28;20051;-64
2021/05/03 01:08:09;;;;;;;1.15;0.75;;;3.80;99.90;;;;;;4965937;28;20058;-64
2021/05/03 01:10:35;;;;;;;3.92;1.10;;;3.80;99.90;;;;;;4961582;28;20110;-62
2021/05/03 01:13:01;;;;;;;1.48;0.85;;;3.90;99.90;;;;;;4962067;28;20453;-62
2021/05/03 01:15:28;;;;;;;1.20;0.95;;;3.90;99.90;;;;;;4960103;28;20529;-63
2021/05/03 01:18:03;;;;;;;3.03;0.65;;;3.90;99.90;;;;;;4966107;28;20059;-66
2021/05/03 01:20:33;;;;;;;1.15;0.90;;;3.90;99.90;;;;;;4961972;28;20057;-63
2021/05/03 01:23:00;;;;;;;0.87;0.70;;;3.90;99.90;;;;;;4963496;28;20478;-63
2021/05/03 01:25:31;;;;;;;1.52;0.80;;;3.90;99.90;;;;;;4960796;28;20043;-64
2021/05/03 01:28:05;;;;;;;3.83;1.40;;;3.80;99.90;;;;;;4961939;28;20412;-64
2021/05/03 01:30:34;;;;;;;0.82;0.65;;;3.80;99.90;;;;;;4962293;28;20047;-66
2021/05/03 01:33:03;;;;;;;0.93;0.57;;;3.80;99.90;;;;;;4962018;28;20109;-62
2021/05/03 01:35:30;;;;;;;3.05;1.13;;;3.80;99.90;;;;;;4960818;28;20494;-64
2021/05/03 01:37:58;;;;;;;0.85;0.60;;;3.70;99.90;;;;;;4956971;28;20058;-62
2021/05/03 01:40:28;;;;;;;0.90;0.70;;;3.80;99.90;;;;;;4962255;28;20058;-62
2021/05/03 01:42:55;;;;;;;0.70;0.70;;;3.70;99.90;;;;;;4959740;28;20169;-63
2021/05/03 01:45:26;;;;;;;1.27;0.93;;;3.70;99.90;;;;;;4960840;28;20086;-65
2021/05/03 01:47:54;;;;;;;3.05;0.93;;;3.70;99.90;;;;;;4963155;28;20999;-64
2021/05/03 01:50:22;;;;;;;1.08;0.75;;;3.70;99.90;;;;;;4964389;28;20413;-64
2021/05/03 01:52:50;;;;;;;0.88;0.52;;;3.70;99.90;;;;;;4965365;28;20050;-64
2021/05/03 01:55:20;;;;;;;1.00;0.70;;;3.70;99.90;;;;;;4964784;28;20113;-64
2021/05/03 01:57:47;;;;;;;0.60;0.60;;;3.60;99.90;;;;;;4957829;28;20124;-63
2021/05/03 02:00:14;;;;;;;0.80;0.80;;;3.70;99.90;;;;;;4960935;28;20054;-62
2021/05/03 02:02:45;;;;;;;1.30;0.63;;;3.70;99.90;;;;;;4958272;28;20055;-63
2021/05/03 02:05:18;;;;;;;4.05;2.88;;;3.60;99.90;;;;;;4958540;28;20050;-64
2021/05/03 02:07:45;;;;;;;1.45;1.13;;;3.70;99.90;;;;;;4962731;28;20058;-63
2021/05/03 02:10:12;;;;;;;3.47;0.85;;;3.70;99.90;;;;;;4961406;28;20063;-64
2021/05/03 02:12:39;;;;;;;1.10;0.82;;;3.60;99.90;;;;;;4964616;28;20046;-64
2021/05/03 02:15:08;;;;;;;1.42;0.60;;;3.60;99.90;;;;;;4963373;28;20053;-63
2021/05/03 02:17:34;;;;;;;1.20;0.80;;;3.60;99.90;;;;;;4964232;28;20134;-62
2021/05/03 02:20:01;;;;;;;0.77;0.73;;;3.60;99.90;;;;;;4965044;28;20046;-64
2021/05/03 02:22:27;;;;;;;1.55;0.90;;;3.60;99.90;;;;;;4959687;28;20462;-62
2021/05/03 02:24:54;;;;;;;2.63;0.90;;;3.60;99.90;;;;;;4962320;28;20059;-63
2021/05/03 02:27:21;;;;;;;1.10;0.75;;;3.60;99.90;;;;;;4955244;28;20122;-65
2021/05/03 02:29:48;;;;;;;1.30;1.10;;;3.60;99.90;;;;;;4976257;28;20059;-62
2021/05/03 02:32:14;;;;;;;2.10;1.05;;;3.60;99.90;;;;;;4962381;28;20437;-63
2021/05/03 02:34:41;;;;;;;1.38;0.82;;;3.60;99.90;;;;;;4964961;28;20147;-63
2021/05/03 02:37:07;;;;;;;1.00;0.80;;;3.50;99.90;;;;;;4962965;28;20527;-63
2021/05/03 02:39:34;;;;;;;3.05;1.30;;;3.50;99.90;;;;;;4962785;28;20436;-62
2021/05/03 02:42:01;;;;;;;1.25;0.70;;;3.50;99.90;;;;;;4964090;28;20077;-65
2021/05/03 02:44:28;;;;;;;4.35;2.92;;;3.50;99.90;;;;;;4966064;28;20073;-62
2021/05/03 02:46:55;;;;;;;1.42;0.80;;;3.50;99.90;;;;;;4963977;28;20138;-66
2021/05/03 02:49:21;;;;;;;1.02;0.77;;;3.50;99.90;;;;;;4964303;28;20065;-65
2021/05/03 02:51:48;;;;;;;1.27;0.80;;;3.50;99.90;;;;;;4966225;28;20054;-63
2021/05/03 02:54:14;;;;;;;0.70;0.68;;;3.50;99.90;;;;;;4948788;28;20090;-63
2021/05/03 02:56:40;;;;;;;1.38;0.80;;;3.50;99.90;;;;;;4965132;28;20065;-66
2021/05/03 02:59:07;;;;;;;1.30;0.80;;;3.50;99.90;;;;;;4964523;28;20053;-61
2021/05/03 03:01:33;;;;;;;3.92;1.25;;;3.50;99.90;;;;;;4963506;28;20080;-63
2021/05/03 03:04:00;;;;;;;0.82;0.65;;;3.50;99.90;;;;;;4965012;28;20146;-63
2021/05/03 03:06:26;;;;;;;0.93;0.43;;;3.50;99.90;;;;;;4965920;28;20043;-62
2021/05/03 03:08:53;;;;;;;1.17;0.90;;;3.50;99.90;;;;;;4964076;28;20073;-62
2021/05/03 03:11:21;;;;;;;2.15;0.98;;;3.50;99.90;;;;;;4964122;28;20097;-63
2021/05/03 03:13:48;;;;;;;1.20;1.08;;;3.50;99.90;;;;;;4962376;28;20082;-63
2021/05/03 03:16:25;;;;;;;2.20;0.88;;;3.50;99.90;;;;;;4965698;28;20275;-65
2021/05/03 03:18:54;;;;;;;2.95;1.38;;;3.50;99.90;;;;;;4962926;28;20051;-62
2021/05/03 03:21:21;;;;;;;0.83;0.60;;;3.50;99.90;;;;;;4963072;28;20054;-64
2021/05/03 03:23:48;;;;;;;1.20;0.80;;;3.50;99.90;;;;;;4960498;28;20666;-62
2021/05/03 03:26:14;;;;;;;1.33;1.15;;;3.50;99.90;;;;;;4965058;28;20101;-63
2021/05/03 03:28:41;;;;;;;1.65;0.82;;;3.50;99.90;;;;;;4964155;28;20046;-63
2021/05/03 03:31:07;;;;;;;2.00;0.80;;;3.50;99.90;;;;;;4964621;28;20050;-64
2021/05/03 03:33:34;;;;;;;2.63;1.00;;;3.50;99.90;;;;;;4963870;28;20106;-62
2021/05/03 03:36:00;;;;;;;1.73;0.98;;;3.50;99.90;;;;;;4964499;28;20418;-63
2021/05/03 03:38:27;;;;;;;2.33;1.08;;;3.60;99.90;;;;;;4964853;28;20778;-63
2021/05/03 03:40:53;;;;;;;1.10;0.80;;;3.60;99.90;;;;;;4963922;28;20158;-63
2021/05/03 03:43:20;;;;;;;1.08;0.70;;;3.60;99.90;;;;;;4962692;28;20078;-66
2021/05/03 03:45:46;;;;;;;3.10;0.90;;;3.60;99.90;;;;;;4964254;28;20057;-62
2021/05/03 03:48:13;;;;;;;5.00;1.13;;;3.70;99.90;;;;;;4965425;28;20057;-64
2021/05/03 03:50:39;;;;;;;1.10;0.95;;;3.70;99.90;;;;;;4962749;28;20058;-63
2021/05/03 03:53:06;;;;;;;1.35;0.88;;;3.70;99.90;;;;;;4965619;28;20104;-64
2021/05/03 03:55:32;;;;;;;3.05;1.00;;;3.70;99.90;;;;;;4960726;28;20050;-63
2021/05/03 03:57:59;;;;;;;1.45;0.98;;;3.80;99.90;;;;;;4960122;28;20065;-64
2021/05/03 04:00:26;;;;;;;2.83;1.67;;;3.80;99.90;;;;;;4961874;28;20142;-63
2021/05/03 04:02:54;;;;;;;0.90;0.80;;;3.80;99.90;;;;;;4959352;28;20431;-63
2021/05/03 04:21:40;;;;;;;2.92;1.27;;;4.10;99.90;;;;;;4962406;28;20085;-64
2021/05/03 04:24:23;;;;;;;5.03;1.23;;;4.20;99.90;;;;;;4963532;28;20058;-62
2021/05/03 04:26:49;;;;;;;2.97;1.48;;;4.20;99.90;;;;;;4965123;28;20062;-63
2021/05/03 04:29:16;;;;;;;5.50;1.08;;;4.30;99.90;;;;;;4963096;28;20054;-63
2021/05/03 04:31:43;;;;;;;4.88;1.38;;;4.30;99.90;;;;;;4961332;28;20508;-63
2021/05/03 04:34:09;;;;;;;5.78;1.95;;;4.30;99.90;;;;;;4965979;28;20121;-62
2021/05/03 04:36:36;;;;;;;0.80;0.68;;;4.40;99.90;;;;;;4963114;28;20055;-66
2021/05/03 04:39:03;;;;;;;1.52;1.25;;;4.40;99.90;;;;;;4968958;28;20046;-62
2021/05/03 04:41:29;;;;;;;2.00;1.00;;;4.50;99.90;;;;;;4960305;28;20496;-64
2021/05/03 04:43:56;;;;;;;3.35;1.20;;;4.50;99.90;;;;;;4963910;28;20055;-63
2021/05/03 04:46:22;;;;;;;1.42;0.98;;;4.60;99.90;;;;;;4960131;28;20054;-65
2021/05/03 04:48:49;;;;;;;3.72;1.83;;;4.60;99.90;;;;;;4963473;28;20394;-65
2021/05/03 04:51:16;;;;;;;4.72;1.48;;;4.60;99.90;;;;;;4962429;28;20062;-64
2021/05/03 04:53:42;;;;;;;5.93;1.40;;;4.70;99.90;;;;;;4959882;28;20046;-63
2021/05/03 04:56:09;;;;;;;4.22;1.33;;;4.70;99.90;;;;;;4962743;28;20417;-64
2021/05/03 04:58:35;;;;;;;1.83;1.20;;;4.80;99.90;;;;;;4961870;28;20102;-64
2021/05/03 05:01:06;;;;;;;1.83;1.00;;;4.80;99.90;;;;;;4963851;28;20050;-64
2021/05/03 05:03:33;;;;;;;0.98;0.70;;;4.90;99.90;;;;;;4959859;28;20569;-63
2021/05/03 05:05:59;;;;;;;1.35;1.25;;;4.90;99.90;;;;;;4962957;28;20058;-64
2021/05/03 05:08:26;;;;;;;5.97;1.08;;;5.00;99.90;;;;;;4950922;28;20498;-64
2021/05/03 05:10:52;;;;;;;2.53;1.02;;;5.00;99.90;;;;;;4963080;28;20039;-62
2021/05/03 05:13:18;;;;;;;1.70;1.15;;;5.10;99.90;;;;;;4961235;28;20403;-65
2021/05/03 05:15:45;;;;;;;1.98;0.90;;;5.10;99.90;;;;;;4962812;28;20058;-62
2021/05/03 05:18:11;;;;;;;2.95;1.10;;;5.20;99.90;;;;;;4963309;28;20567;-62
2021/05/03 05:20:38;;;;;;;2.97;1.52;;;5.20;99.90;;;;;;4961521;28;20059;-62
2021/05/03 05:23:05;;;;;;;2.75;2.03;;;5.30;99.90;;;;;;4967061;28;20054;-62
2021/05/03 05:25:34;;;;;;;5.53;1.25;;;5.30;99.90;;;;;;4964692;28;20057;-62
2021/05/03 05:28:01;;;;;;;1.13;1.02;;;5.40;99.90;;;;;;4967026;28;20054;-62
2021/05/03 05:30:28;;;;;;;3.60;1.17;;;5.40;99.90;;;;;;4965581;28;20468;-62
2021/05/03 05:32:54;;;;;;;2.53;1.13;;;5.50;99.90;;;;;;4968059;28;20070;-63
2021/05/03 05:35:21;;;;;;;4.60;1.38;;;5.50;99.90;;;;;;4963573;28;20074;-64
2021/05/03 05:37:47;;;;;;;2.38;0.77;;;5.60;99.90;;;;;;4965582;28;20054;-65
2021/05/03 05:40:14;;;;;;;2.30;1.23;;;5.60;99.90;;;;;;4966238;28;20101;-64
2021/05/03 05:42:40;;;;;;;4.47;1.67;;;5.70;99.90;;;;;;4966649;28;21052;-63
2021/05/03 05:45:07;;;;;;;1.55;0.90;;;5.70;99.90;;;;;;4966283;28;20681;-62
2021/05/03 05:47:34;;;;;;;4.07;1.23;;;5.70;99.90;;;;;;4964842;28;20130;-64
2021/05/03 05:50:00;;;;;;;1.92;0.88;;;5.70;99.90;;;;;;4965568;28;20047;-62
2021/05/03 05:52:30;;;;;;;2.60;0.90;;;5.80;99.90;;;;;;4964914;28;20042;-63
2021/05/03 05:54:57;;;;;;;3.22;1.10;;;5.80;99.90;;;;;;4966843;28;20149;-62
2021/05/03 05:57:23;;;;;;;4.40;1.30;;;5.90;99.90;;;;;;4963132;28;20054;-66
2021/05/03 05:59:49;;;;;;;1.50;0.73;;;5.90;99.90;;;;;;4966647;28;20058;-62
2021/05/03 06:02:16;;;;;;;0.73;0.70;;;5.90;99.90;;;;;;4965330;28;20046;-64
2021/05/03 06:04:43;;;;;;;1.23;0.90;;;5.90;99.90;;;;;;4966835;28;20072;-62
2021/05/03 06:07:09;;;;;;;1.20;1.00;;;5.90;99.90;;;;;;4964570;28;20073;-62
2021/05/03 06:09:53;;;;;;;2.03;0.82;;;5.90;99.90;;;;;;4965770;28;20381;-63
2021/05/03 06:12:40;;;;;;;1.92;0.92;;;5.90;99.90;;;;;;1973378;28;10023241;-63
2021/05/03 06:15:06;;;;;;;1.27;0.95;;;5.90;99.90;;;;;;4956006;28;20268;-63
2021/05/03 06:17:33;;;;;;;4.85;1.38;;;5.80;99.90;;;;;;4963051;28;20509;-62
2021/05/03 06:20:00;;;;;;;5.70;0.93;;;5.90;99.90;;;;;;4965691;28;20088;-63
2021/05/03 06:22:28;;;;;;;1.77;0.93;;;6.00;99.90;;;;;;4966573;28;20493;-63
2021/05/03 06:24:55;;;;;;;4.03;1.30;;;6.00;99.90;;;;;;4946050;28;20063;-62
2021/05/03 06:27:21;;;;;;;2.90;1.13;;;6.10;99.90;;;;;;4963879;28;20081;-65
2021/05/03 06:29:48;;;;;;;2.72;0.90;;;6.20;99.90;;;;;;4964256;28;20157;-63
2021/05/03 06:32:14;;;;;;;2.67;0.60;;;6.20;99.90;;;;;;4965659;28;20041;-63
2021/05/03 06:34:42;;;;;;;2.30;0.98;;;6.30;99.90;;;;;;4963523;28;20066;-62
2021/05/03 06:37:09;;;;;;;2.70;1.58;;;6.20;99.90;;;;;;4965286;28;20081;-64
2021/05/03 06:39:37;;;;;;;2.40;1.08;;;6.30;99.90;;;;;;4962028;28;20047;-65
2021/05/03 06:42:04;;;;;;;1.95;1.23;;;6.20;99.90;;;;;;4965514;28;20680;-63
2021/05/03 06:44:31;;;;;;;1.23;0.95;;;6.20;99.90;;;;;;4965752;28;20057;-63
2021/05/03 06:46:59;;;;;;;3.10;1.00;;;6.30;99.90;;;;;;4964072;28;20512;-65
2021/05/03 06:49:25;;;;;;;2.85;1.23;;;6.40;99.90;;;;;;4964350;28;20045;-65
2021/05/03 06:51:52;;;;;;;1.58;0.82;;;6.50;99.90;;;;;;4963621;28;20061;-63
2021/05/03 06:54:19;;;;;;;1.98;0.80;;;6.60;99.90;;;;;;4964860;28;20043;-64
2021/05/03 06:56:45;;;;;;;2.92;0.90;;;6.70;99.90;;;;;;4964126;28;20142;-66
2021/05/03 06:59:12;;;;;;;0.93;0.85;;;6.70;99.90;;;;;;4963758;28;20110;-65
2021/05/03 07:01:38;;;;;;;3.13;0.85;;;6.70;99.90;;;;;;4962981;28;20128;-66
2021/05/03 07:04:05;;;;;;;1.10;0.82;;;6.70;99.90;;;;;;4964835;28;20129;-63
2021/05/03 07:06:31;;;;;;;1.05;0.77;;;6.80;99.90;;;;;;4964927;28;20050;-64
2021/05/03 07:08:58;;;;;;;0.98;0.50;;;6.90;99.90;;;;;;4964960;28;20131;-65
2021/05/03 07:11:28;;;;;;;1.50;0.80;;;6.90;99.90;;;;;;4963794;28;20469;-62
2021/05/03 07:13:55;;;;;;;1.25;0.73;;;6.90;99.90;;;;;;4963974;28;20054;-63
2021/05/03 07:16:22;;;;;;;1.10;0.70;;;7.00;99.90;;;;;;4965644;28;20469;-66
2021/05/03 07:18:51;;;;;;;1.52;0.80;;;7.00;99.90;;;;;;4964200;28;20055;-62
2021/05/03 07:21:18;;;;;;;1.15;0.75;;;6.90;99.90;;;;;;4964550;28;20081;-65
2021/05/03 07:23:48;;;;;;;1.88;0.98;;;7.00;99.90;;;;;;4963324;28;20069;-64
2021/05/03 07:26:15;;;;;;;1.23;0.40;;;7.10;99.90;;;;;;4964807;28;20046;-62
2021/05/03 07:28:41;;;;;;;2.13;0.88;;;7.10;99.90;;;;;;4963211;28;20051;-62
2021/05/03 07:31:08;;;;;;;2.00;0.70;;;7.20;99.90;;;;;;4964809;28;20095;-65
2021/05/03 07:33:34;;;;;;;1.95;0.98;;;7.00;99.90;;;;;;4961151;28;20157;-63
2021/05/03 07:36:01;;;;;;;2.35;0.70;;;6.90;99.90;;;;;;4963555;28;20042;-62
2021/05/03 07:38:27;;;;;;;2.28;1.20;;;7.00;99.90;;;;;;4963943;28;20046;-64
2021/05/03 07:40:54;;;;;;;4.88;2.78;;;7.10;99.90;;;;;;4964199;28;20058;-61
2021/05/03 07:43:23;;;;;;;1.85;0.80;;;7.20;99.90;;;;;;4962604;28;20109;-63
2021/05/03 07:45:49;;;;;;;5.00;1.38;;;7.10;99.90;;;;;;4962954;28;20066;-66
2021/05/03 07:48:17;;;;;;;0.90;0.82;;;7.10;99.90;;;;;;4964805;28;20058;-62
2021/05/03 07:50:43;;;;;;;1.02;1.00;;;7.20;99.90;;;;;;4962764;28;20068;-65
2021/05/03 07:53:10;;;;;;;1.98;1.23;;;7.20;99.90;;;;;;4964413;28;20097;-63
2021/05/03 07:55:36;;;;;;;1.63;0.75;;;7.20;99.90;;;;;;4961293;28;20038;-63
2021/05/03 07:58:03;;;;;;;0.82;0.82;;;7.20;99.90;;;;;;4964686;28;20054;-63
2021/05/03 08:00:31;;;;;;;1.02;0.90;;;7.20;99.90;;;;;;4962693;28;20050;-65
2021/05/03 08:02:58;;;;;;;1.90;1.05;;;7.20;99.90;;;;;;4963920;28;20519;-63
2021/05/03 08:05:25;;;;;;;1.95;1.73;;;7.30;99.90;;;;;;4962010;28;20050;-64
2021/05/03 08:07:52;;;;;;;0.80;0.80;;;7.40;99.90;;;;;;4958180;28;20047;-62
2021/05/03 08:10:18;;;;;;;1.63;0.90;;;7.40;99.90;;;;;;4945227;28;20560;-62
2021/05/03 08:12:45;;;;;;;1.63;0.88;;;7.30;99.90;;;;;;4943784;28;20059;-63
2021/05/03 08:15:13;;;;;;;0.90;0.77;;;7.20;99.90;;;;;;4945487;28;20043;-66
2021/05/03 08:17:42;;;;;;;2.78;0.82;;;7.20;99.90;;;;;;4942194;28;20100;-63
2021/05/03 08:20:10;;;;;;;1.48;0.70;;;7.20;99.90;;;;;;4944984;28;20051;-62
2021/05/03 08:22:36;;;;;;;0.70;0.65;;;7.20;99.90;;;;;;4940328;28;20059;-66
2021/05/03 08:25:06;;;;;;;0.70;0.70;;;7.30;99.90;;;;;;4946192;28;20055;-63
2021/05/03 08:27:33;;;;;;;2.43;0.80;;;7.10;99.90;;;;;;4941336;28;20043;-63
2021/05/03 08:30:00;;;;;;;1.60;0.80;;;7.20;99.90;;;;;;4944435;28;20494;-62
2021/05/03 08:32:26;;;;;;;2.15;0.70;;;7.30;99.90;;;;;;4942737;28;20051;-63
2021/05/03 08:34:53;;;;;;;1.02;0.77;;;7.20;99.90;;;;;;4945502;28;20051;-61
2021/05/03 08:37:19;;;;;;;7.05;1.30;;;7.20;99.90;;;;;;4941845;28;20469;-66
2021/05/03 08:39:46;;;;;;;3.20;0.60;;;7.20;99.90;;;;;;4942577;28;20051;-63
2021/05/03 08:42:15;;;;;;;0.98;0.45;;;7.30;99.90;;;;;;4942587;28;20066;-62
2021/05/03 08:44:46;;;;;;;2.20;1.10;;;7.20;99.90;;;;;;4935268;28;20057;-66
2021/05/03 08:47:14;;;;;;;5.43;0.80;;;7.20;99.90;;;;;;4943629;28;20043;-64
2021/05/03 08:52:20;;;;;;;1.15;0.82;;;7.10;99.90;;;;;;4944217;28;20054;-64
2021/05/03 08:54:47;;;;;;;2.50;1.00;;;7.30;99.90;;;;;;4938448;28;20058;-63
2021/05/03 08:57:14;;;;;;;1.88;1.05;;;7.30;99.90;;;;;;4944106;28;20058;-64
2021/05/03 08:59:42;;;;;;;1.58;0.70;;;7.50;99.90;;;;;;4941323;28;20051;-64
2021/05/03 09:02:13;;;;;;;2.40;1.00;;;7.40;99.90;;;;;;4945347;28;20047;-65
2021/05/03 09:04:42;;;;;;;0.60;0.60;;;7.40;99.90;;;;;;4942387;28;20043;-65
2021/05/03 09:07:10;;;;;;;2.05;0.50;;;7.60;99.90;;;;;;4942479;28;20051;-63
2021/05/03 09:09:53;;;;;;;2.80;1.00;;;7.60;99.90;;;;;;4960007;28;20043;-64
2021/05/03 09:12:23;;;;;;;4.32;1.00;;;7.50;99.90;;;;;;4959748;28;20641;-65
2021/05/03 09:14:59;;;;;;;0.80;0.70;;;7.50;99.90;;;;;;4963486;28;20639;-65
2021/05/03 09:17:37;;;;;;;0.70;0.63;;;7.60;99.90;;;;;;4959457;28;20051;-63
2021/05/03 09:20:08;;;;;;;0.93;0.77;;;7.70;99.90;;;;;;4947416;28;20197;-65
2021/05/03 09:22:43;;;;;;;5.60;0.93;;;7.60;99.90;;;;;;4960017;28;20055;-65
2021/05/03 09:25:23;;;;;;;1.00;0.73;;;7.60;99.90;;;;;;4946171;28;20511;-64
2021/05/03 09:28:20;;;;;;;1.25;0.70;;;7.60;99.90;;;;;;4960126;28;20595;-66
2021/05/03 09:30:56;;;;;;;1.63;0.95;;;7.80;99.90;;;;;;4948052;28;20050;-64
2021/05/03 09:33:29;;;;;;;1.73;0.80;;;7.80;99.90;;;;;;4961363;28;20382;-63
2021/05/03 09:35:57;;;;;;;1.30;0.80;;;7.80;99.90;;;;;;4958192;28;20448;-62
2021/05/03 09:38:44;;;;;;;1.40;0.85;;;7.80;99.90;;;;;;4963739;28;20057;-64
2021/05/03 09:41:27;;;;;;;2.33;1.02;;;7.60;99.90;;;;;;4945079;28;20066;-65
2021/05/03 09:44:02;;;;;;;0.82;0.57;;;7.70;99.90;;;;;;4960459;28;20057;-62
2021/05/03 09:46:36;;;;;;;2.90;0.82;;;7.80;99.90;;;;;;4963189;28;20827;-65
2021/05/03 09:49:08;;;;;;;1.02;0.70;;;8.00;99.90;;;;;;4961999;28;20046;-62
2021/05/03 09:51:57;;;;;;;2.88;0.82;;;8.10;99.90;;;;;;4962230;28;20209;-63
2021/05/03 09:54:29;;;;;;;1.20;1.00;;;8.00;99.90;;;;;;4961859;28;20077;-62
2021/05/03 09:57:03;;;;;;;1.45;0.75;;;7.90;99.90;;;;;;4963021;28;20043;-65
2021/05/03 09:59:41;;;;;;;3.13;1.30;;;7.90;99.90;;;;;;4959709;28;20059;-64
2021/05/03 10:02:33;;;;;;;1.58;1.00;;;8.00;99.90;;;;;;4962942;28;20076;-66
2021/05/03 10:05:06;;;;;;;1.15;1.05;;;8.20;99.90;;;;;;4963962;28;20054;-64
2021/05/03 10:07:35;;;;;;;3.13;0.80;;;8.30;99.90;;;;;;4959642;28;20053;-64
2021/05/03 10:10:18;;;;;;;2.30;1.00;;;8.50;99.90;;;;;;4967059;28;20054;-63
2021/05/03 10:12:45;;;;;;;3.13;0.70;;;8.00;99.90;;;;;;4964297;28;20076;-65
2021/05/03 10:15:14;;;;;;;2.80;0.88;;;8.10;99.90;;;;;;4966333;28;20166;-63
2021/05/03 10:17:42;;;;;;;2.75;1.95;;;8.10;99.90;;;;;;4963463;28;20629;-65
2021/05/03 10:20:11;;;;;;;3.95;1.20;;;8.00;99.90;;;;;;4966565;28;20051;-64
2021/05/03 10:22:37;;;;;;;1.35;1.00;;;8.10;99.90;;;;;;4965444;28;20051;-62
2021/05/03 10:25:10;;;;;;;1.88;0.90;;;7.90;99.90;;;;;;4965806;28;20379;-63
2021/05/03 10:27:43;;;;;;;1.27;1.00;;;8.10;99.90;;;;;;4963639;28;20046;-65
2021/05/03 10:30:16;;;;;;;3.05;1.10;;;8.20;99.90;;;;;;4965583;28;20129;-64
2021/05/03 10:32:57;;;;;;;1.67;0.90;;;8.10;99.90;;;;;;4966517;28;20065;-62
2021/05/03 10:35:26;;;;;;;1.00;0.95;;;8.10;99.90;;;;;;4963044;28;20043;-64
2021/05/03 10:37:54;;;;;;;1.05;0.70;;;8.00;99.90;;;;;;4966134;28;20094;-63
2021/05/03 10:40:20;;;;;;;0.77;0.68;;;7.80;99.90;;;;;;4963616;28;20631;-64
2021/05/03 10:43:02;;;;;;;1.65;0.90;;;7.60;99.90;;;;;;4965474;28;20208;-66
2021/05/03 10:51:38;;;;;;;2.15;1.00;;;8.20;99.90;;;;;;4964152;28;20054;-66
2021/05/03 10:54:51;;;;;;;2.38;1.00;;;8.30;99.90;;;;;;4963675;28;20313;-63
2021/05/03 10:57:18;;;;;;;1.35;0.82;;;8.20;99.90;;;;;;4954273;28;20059;-63
2021/05/03 10:59:46;;;;;;;2.95;0.85;;;8.20;99.90;;;;;;4964633;28;20064;-64
2021/05/03 11:02:14;;;;;;;0.70;0.60;;;8.30;99.90;;;;;;4965038;28;20057;-64
2021/05/03 11:05:07;;;;;;;0.98;0.88;;;8.10;99.90;;;;;;4965883;28;20074;-64
2021/05/03 11:07:34;;;;;;;1.00;0.80;;;8.10;99.90;;;;;;4961213;28;20055;-64
2021/05/03 11:10:00;;;;;;;1.27;0.77;;;7.90;99.90;;;;;;4965784;28;20047;-64
2021/05/03 11:12:29;;;;;;;1.48;0.85;;;8.00;99.90;;;;;;4964363;28;20054;-65
2021/05/03 11:15:11;;;;;;;1.98;1.02;;;8.10;99.90;;;;;;4964626;28;20508;-67
2021/05/03 11:17:58;;;;;;;1.20;1.10;;;8.40;99.90;;;;;;4963474;28;20512;-65
2021/05/03 11:20:24;;;;;;;2.25;0.95;;;8.50;99.90;;;;;;4964397;28;20042;-63
2021/05/03 11:23:02;;;;;;;2.80;0.80;;;8.70;99.90;;;;;;4965676;28;20043;-64
2021/05/03 11:25:32;;;;;;;2.05;0.93;;;8.70;99.90;;;;;;4962386;28;20137;-66
2021/05/03 11:30:39;;;;;;;1.23;0.93;;;8.60;99.90;;;;;;4964587;28;20047;-65
2021/05/03 11:33:13;;;;;;;3.65;1.33;;;8.80;99.90;;;;;;4964980;28;20055;-66
2021/05/03 11:36:01;;;;;;;4.28;1.33;;;9.00;99.90;;;;;;4962124;28;20089;-67
2021/05/03 11:41:23;;;;;;;0.82;0.82;;;8.90;99.90;;;;;;4965376;28;20067;-64
2021/05/03 11:46:38;;;;;;;0.90;0.85;;;8.60;99.90;;;;;;4965030;28;20057;-62
2021/05/03 11:49:11;;;;;;;0.73;0.70;;;8.60;99.90;;;;;;4963861;28;20077;-63
2021/05/03 11:51:43;;;;;;;2.83;1.10;;;8.60;99.90;;;;;;4963594;28;20043;-65
2021/05/03 11:54:43;;;;;;;0.95;0.85;;;8.70;99.90;;;;;;4964458;28;20070;-64
2021/05/03 11:57:18;;;;;;;2.72;0.73;;;8.60;99.90;;;;;;4910521;28;20484;-64
2021/05/03 11:59:46;;;;;;;2.00;1.02;;;8.70;99.90;;;;;;4961956;28;20105;-66
2021/05/03 12:02:14;;;;;;;1.67;0.90;;;8.80;99.90;;;;;;4964681;28;20038;-63
2021/05/03 12:04:44;;;;;;;1.27;1.10;;;8.90;99.90;;;;;;4963920;28;20062;-64
2021/05/03 12:07:32;;;;;;;1.13;0.82;;;9.00;99.90;;;;;;4964456;28;20142;-65
2021/05/03 12:10:11;;;;;;;1.40;1.08;;;8.80;99.90;;;;;;4962408;28;20053;-64
2021/05/03 12:12:42;;;;;;;0.80;0.52;;;8.60;99.90;;;;;;4945293;28;20066;-62
2021/05/03 12:15:15;;;;;;;0.80;0.80;;;8.40;99.90;;;;;;4963607;28;20054;-64
2021/05/03 12:17:42;;;;;;;0.88;0.88;;;8.50;99.90;;;;;;4962258;28;20132;-62
2021/05/03 12:20:10;;;;;;;1.42;0.90;;;8.80;99.90;;;;;;4964929;28;20046;-66
2021/05/03 12:22:38;;;;;;;0.90;0.73;;;9.00;99.90;;;;;;4962460;28;20134;-65
2021/05/03 12:25:10;;;;;;;1.92;0.80;;;9.20;99.90;;;;;;4964430;28;20153;-62
2021/05/03 12:27:38;;;;;;;1.40;1.05;;;9.00;99.90;;;;;;4959153;28;20050;-64
2021/05/03 12:30:06;;;;;;;3.03;1.02;;;8.80;99.90;;;;;;4963146;28;20339;-62
2021/05/03 12:32:41;;;;;;;2.25;0.85;;;8.90;99.90;;;;;;4961773;28;20685;-62
2021/05/03 12:35:10;;;;;;;2.15;1.20;;;9.10;99.90;;;;;;4962221;28;20066;-62
2021/05/03 12:37:37;;;;;;;1.00;0.90;;;8.80;99.90;;;;;;4945031;28;20529;-64
2021/05/03 12:40:12;;;;;;;1.52;0.85;;;8.70;99.90;;;;;;4963644;28;20050;-61
2021/05/03 12:42:46;;;;;;;1.58;0.60;;;8.80;99.90;;;;;;4964239;28;20043;-64
2021/05/03 12:45:15;;;;;;;1.30;0.85;;;9.20;99.90;;;;;;4962844;28;20924;-62
2021/05/03 12:48:16;;;;;;;2.25;0.88;;;9.20;99.90;;;;;;4960833;28;20066;-65
2021/05/03 12:51:05;;;;;;;1.13;0.90;;;9.30;99.90;;;;;;4962080;28;20076;-66
2021/05/03 12:56:34;;;;;;;1.02;0.65;;;9.70;99.90;;;;;;4958085;28;20596;-63
2021/05/03 12:59:07;;;;;;;0.88;0.77;;;9.60;99.90;;;;;;4960506;28;20437;-64
2021/05/03 13:04:32;;;;;;;2.15;1.30;;;9.00;99.90;;;;;;4960671;28;20446;-66
2021/05/03 13:07:25;;;;;;;6.05;1.13;;;8.70;99.90;;;;;;4959762;28;20085;-66
2021/05/03 13:29:46;;;;;;;2.22;1.48;;;8.50;99.90;;;;;;4960727;28;20125;-63
2021/05/03 13:32:25;;;;;;;2.30;1.00;;;8.50;99.90;;;;;;4962417;28;20117;-63
2021/05/03 13:34:53;;;;;;;3.25;1.10;;;8.70;99.90;;;;;;4962332;28;20766;-64
2021/05/03 13:37:20;;;;;;;0.82;0.82;;;9.10;99.90;;;;;;4961668;28;20043;-66
2021/05/03 13:40:08;;;;;;;1.45;1.35;;;9.30;99.90;;;;;;4962083;28;21460;-64
2021/05/03 13:42:34;;;;;;;1.33;0.50;;;9.50;99.90;;;;;;4963621;28;20255;-64
2021/05/03 13:45:02;;;;;;;0.90;0.85;;;9.70;99.90;;;;;;4966001;28;20066;-64
2021/05/03 13:47:29;;;;;;;1.25;0.68;;;9.70;99.90;;;;;;4965909;28;20342;-62
2021/05/03 13:49:56;;;;;;;3.00;1.10;;;9.70;99.90;;;;;;4965180;28;20051;-63
2021/05/03 13:52:22;;;;;;;0.80;0.60;;;9.70;99.90;;;;;;4966755;28;20699;-66
2021/05/03 13:54:49;;;;;;;2.08;1.00;;;9.40;99.90;;;;;;4965608;28;20496;-63
2021/05/03 13:57:15;;;;;;;0.85;0.82;;;9.40;99.90;;;;;;4965597;28;20054;-63
2021/05/03 13:59:43;;;;;;;2.13;0.90;;;9.30;99.90;;;;;;4963600;28;20051;-64
2021/05/03 14:02:09;;;;;;;2.40;0.65;;;9.40;99.90;;;;;;4968655;28;20055;-63
2021/05/03 14:04:37;;;;;;;2.38;0.90;;;9.50;99.90;;;;;;4951241;28;20134;-63
2021/05/03 14:07:03;;;;;;;0.98;0.70;;;9.60;99.90;;;;;;4964936;28;20209;-62
2021/05/03 14:09:30;;;;;;;3.28;1.33;;;9.80;99.90;;;;;;4964533;28;20047;-66